Time;durP1;ratioP1;P1;durP2;ratioP2;P2;SDS_P1;SDS_P2;PMS_P1;PMS_P2;Temp;Humidity;BMP_temperature;BMP_pressure;BME280_temperature;BME280_humidity;BME280_pressure;Samples;Min_cycle;Max_cycle;Signal;HPM_P1;HPM_P2
2021/06/23 00:02:18;;;;;;;8.45;4.42;;;;;;;26.35;63.25;101164.04;1742216;81;21032;-53
2021/06/23 00:04:45;;;;;;;6.92;4.80;;;;;;;26.35;63.27;101158.70;1739250;81;20994;-51
2021/06/23 00:07:11;;;;;;;7.30;5.67;;;;;;;26.36;63.18;101152.38;1761359;80;21138;-52
2021/06/23 00:09:40;;;;;;;7.42;5.58;;;;;;;26.35;63.20;101142.70;1765282;80;21583;-61
2021/06/23 00:12:15;;;;;;;10.18;6.15;;;;;;;26.35;63.15;101150.70;1754732;81;21011;-51
2021/06/23 00:14:37;;;;;;;8.75;5.22;;;;;;;26.34;63.10;101156.99;1741760;80;21510;-55
2021/06/23 00:17:04;;;;;;;10.98;5.92;;;;;;;26.33;63.11;101153.98;1749504;80;21029;-55
2021/06/23 00:19:31;;;;;;;9.33;5.58;;;;;;;26.33;63.11;101147.31;1748027;80;21067;-50
2021/06/23 00:21:58;;;;;;;8.60;4.92;;;;;;;26.29;62.96;101135.19;1759918;80;21023;-51
2021/06/23 00:24:25;;;;;;;7.05;5.15;;;;;;;26.29;62.96;101135.19;1755545;80;21035;-55
2021/06/23 00:26:52;;;;;;;6.67;3.98;;;;;;;26.31;63.18;101147.92;1741977;81;20991;-54
2021/06/23 00:29:20;;;;;;;7.62;3.80;;;;;;;26.30;63.11;101148.87;1745282;80;21006;-51
2021/06/23 00:31:46;;;;;;;7.15;4.33;;;;;;;26.28;63.10;101149.02;1740245;80;21494;-54
2021/06/23 00:34:13;;;;;;;7.35;3.75;;;;;;;26.28;63.08;101153.02;1740309;81;21086;-55
2021/06/23 00:36:40;;;;;;;7.17;4.75;;;;;;;26.28;63.04;101154.83;1706307;81;21019;-52
2021/06/23 00:39:06;;;;;;;9.88;3.87;;;;;;;26.27;63.04;101158.48;1749002;80;21061;-50
2021/06/23 00:41:35;;;;;;;9.25;3.98;;;;;;;26.24;63.09;101154.70;1747837;80;21574;-54
2021/06/23 00:44:02;;;;;;;5.78;4.15;;;;;;;26.26;63.05;101154.09;1735451;82;21014;-56
2021/06/23 00:46:28;;;;;;;5.90;3.60;;;;;;;26.24;63.00;101154.23;1735920;81;21035;-53
2021/06/23 00:49:05;;;;;;;6.25;3.85;;;;;;;26.24;62.97;101149.37;1694430;81;21033;-51
2021/06/23 00:51:52;;;;;;;12.05;3.80;;;;;;;26.23;62.92;101147.70;1741139;81;21035;-53
2021/06/23 00:54:27;;;;;;;10.23;4.58;;;;;;;26.22;62.91;101147.31;1739523;81;20990;-52
2021/06/23 00:56:57;;;;;;;5.37;3.70;;;;;;;26.20;62.89;101139.92;1695378;80;21046;-52
2021/06/23 00:59:25;;;;;;;8.48;4.87;;;;;;;26.19;62.85;101145.77;1748864;80;21542;-57
2021/06/23 01:01:52;;;;;;;9.68;3.87;;;;;;;26.19;62.87;101146.25;1748994;81;21515;-52
2021/06/23 01:04:20;;;;;;;7.78;3.95;;;;;;;26.19;62.79;101147.58;1699711;83;21061;-50
2021/06/23 01:06:48;;;;;;;5.80;3.67;;;;;;;26.17;62.83;101148.19;1711970;83;21148;-53
2021/06/23 01:09:16;;;;;;;5.90;3.30;;;;;;;26.16;62.81;101142.48;1708407;83;21573;-51
2021/06/23 01:11:52;;;;;;;5.35;3.20;;;;;;;26.15;62.79;101144.29;1711584;83;21071;-54
2021/06/23 01:14:18;;;;;;;4.42;3.42;;;;;;;26.15;62.77;101140.28;1594980;88;21194;-57
2021/06/23 01:16:45;;;;;;;4.53;3.45;;;;;;;26.15;62.69;101139.47;1591352;88;22054;-58
2021/06/23 01:19:31;;;;;;;8.73;4.22;;;;;;;26.13;62.62;101137.41;1598564;89;21146;-55
2021/06/23 01:21:59;;;;;;;4.87;3.42;;;;;;;26.12;62.54;101131.22;1588995;88;21045;-51
2021/06/23 01:24:25;;;;;;;4.42;3.52;;;;;;;26.12;62.39;101137.03;1587083;89;21145;-51
2021/06/23 01:26:52;;;;;;;9.43;3.75;;;;;;;26.09;62.34;101138.63;1592649;89;21162;-54
2021/06/23 01:29:19;;;;;;;5.37;3.92;;;;;;;26.09;62.29;101143.96;1602411;87;21133;-54
2021/06/23 01:31:58;;;;;;;6.87;3.92;;;;;;;26.08;62.21;101144.91;1591736;88;21042;-55
2021/06/23 01:34:24;;;;;;;6.83;4.87;;;;;;;26.06;62.11;101149.49;1613289;87;21074;-50
2021/06/23 01:36:52;;;;;;;6.70;4.37;;;;;;;26.05;62.11;101150.48;1603119;87;21104;-54
2021/06/23 01:39:19;;;;;;;6.58;4.20;;;;;;;26.03;62.04;101144.42;1606374;87;21029;-51
2021/06/23 01:41:47;;;;;;;8.23;4.40;;;;;;;26.00;61.99;101143.31;1604003;89;21026;-53
2021/06/23 01:44:16;;;;;;;7.05;4.00;;;;;;;25.99;61.77;101150.97;1597115;88;21087;-51
2021/06/23 01:46:42;;;;;;;4.22;3.83;;;;;;;25.96;61.59;101145.86;1607248;87;21145;-54
2021/06/23 01:49:12;;;;;;;5.80;4.20;;;;;;;25.94;61.61;101154.47;1614263;88;21050;-52
2021/06/23 01:51:40;;;;;;;5.37;4.10;;;;;;;25.90;61.74;101149.88;1651362;84;21546;-51
2021/06/23 01:54:07;;;;;;;5.67;3.80;;;;;;;25.89;61.78;101154.83;1683320;84;21016;-56
2021/06/23 01:56:35;;;;;;;4.90;3.92;;;;;;;25.88;61.79;101156.30;1664687;85;21014;-53
2021/06/23 01:59:03;;;;;;;6.35;3.98;;;;;;;25.86;61.87;101152.42;1668785;85;21082;-54
2021/06/23 02:02:05;;;;;;;13.68;7.20;;;;;;;26.10;61.11;101153.16;1598056;89;21058;-52
2021/06/23 02:05:02;;;;;;;8.90;4.58;;;;;;;26.22;60.62;101153.98;1595177;89;21073;-52
2021/06/23 02:07:58;;;;;;;7.78;4.83;;;;;;;26.21;60.44;101160.31;1581822;89;21213;-51
2021/06/23 02:10:52;;;;;;;5.45;3.90;;;;;;;26.20;60.32;101158.12;1567662;89;21581;-55
2021/06/23 02:13:55;;;;;;;5.28;4.22;;;;;;;26.18;60.25;101169.88;1578355;89;21582;-54
2021/06/23 02:16:37;;;;;;;5.97;4.37;;;;;;;26.17;60.28;101170.86;1587566;89;21041;-54
2021/06/23 02:19:06;;;;;;;5.50;3.40;;;;;;;26.17;60.35;101182.87;1563514;90;21582;-57
2021/06/23 02:21:40;;;;;;;4.40;3.65;;;;;;;26.14;60.42;101183.95;1564898;90;21119;-51
2021/06/23 02:24:07;;;;;;;12.10;5.00;;;;;;;26.14;60.31;101179.09;1535996;91;21131;-55
2021/06/23 02:26:36;;;;;;;9.95;5.90;;;;;;;26.13;60.15;101178.23;1565144;90;21146;-51
2021/06/23 02:29:04;;;;;;;10.70;5.72;;;;;;;26.13;59.88;101182.75;1557244;90;21626;-57
2021/06/23 02:31:34;;;;;;;6.20;4.62;;;;;;;26.13;59.83;101182.75;1562754;89;21558;-52
2021/06/23 02:34:04;;;;;;;6.43;4.90;;;;;;;26.12;59.90;101193.04;1541586;91;21095;-56
2021/06/23 02:36:33;;;;;;;10.30;4.50;;;;;;;26.12;59.90;101193.04;1559610;90;21821;-53
2021/06/23 02:39:00;;;;;;;8.30;4.67;;;;;;;26.13;60.04;101196.09;1562559;90;21638;-51
2021/06/23 02:41:26;;;;;;;8.35;4.40;;;;;;;26.12;60.16;101194.38;1532196;90;21181;-55
2021/06/23 02:43:54;;;;;;;11.85;4.67;;;;;;;26.11;60.30;101198.03;1566439;90;21132;-56
2021/06/23 02:46:22;;;;;;;5.92;3.98;;;;;;;26.12;60.40;101200.56;1556737;90;21164;-53
2021/06/23 02:48:51;;;;;;;13.20;5.22;;;;;;;26.14;60.31;101201.77;1524311;92;21183;-51
2021/06/23 02:51:21;;;;;;;14.90;4.92;;;;;;;26.13;60.20;101205.42;1534566;92;21126;-51
2021/06/23 02:53:53;;;;;;;7.30;5.00;;;;;;;26.15;60.14;101210.97;1551896;92;21089;-50
2021/06/23 02:56:28;;;;;;;7.22;5.22;;;;;;;26.13;60.06;101212.91;1540882;92;21418;-56
2021/06/23 02:58:55;;;;;;;7.03;5.08;;;;;;;26.14;60.04;101213.30;1572101;89;21157;-50
2021/06/23 03:01:22;;;;;;;6.10;4.50;;;;;;;26.16;60.12;101215.83;1561066;89;21173;-56
2021/06/23 03:03:51;;;;;;;8.85;4.80;;;;;;;26.16;60.28;101218.50;1539792;92;21187;-51
2021/06/23 03:06:19;;;;;;;12.10;4.85;;;;;;;26.17;60.43;101214.37;1572276;89;21046;-51
2021/06/23 03:08:47;;;;;;;5.90;4.45;;;;;;;26.18;60.54;101216.08;1578180;89;21076;-53
2021/06/23 03:11:18;;;;;;;8.05;4.58;;;;;;;26.21;60.66;101215.00;1577529;89;21633;-53
2021/06/23 03:13:51;;;;;;;7.78;4.80;;;;;;;26.23;60.74;101218.39;1639414;85;21544;-51
2021/06/23 03:16:25;;;;;;;6.65;4.12;;;;;;;26.26;60.80;101215.45;1612332;89;21061;-51
2021/06/23 03:18:53;;;;;;;8.18;4.60;;;;;;;26.27;60.87;101211.84;1646793;85;21533;-55
2021/06/23 03:21:21;;;;;;;6.00;4.47;;;;;;;26.30;60.93;101208.91;1646402;86;22208;-54
2021/06/23 03:23:49;;;;;;;7.37;4.45;;;;;;;26.31;61.01;101206.14;1646136;85;21086;-56
2021/06/23 03:26:18;;;;;;;6.67;4.40;;;;;;;26.34;61.08;101203.69;1654409;85;21148;-53
2021/06/23 03:28:44;;;;;;;8.05;5.00;;;;;;;26.35;61.17;101207.59;1643831;86;22401;-53
2021/06/23 03:31:11;;;;;;;9.13;4.70;;;;;;;26.38;61.26;101203.80;1641763;86;21057;-52
2021/06/23 03:33:40;;;;;;;7.45;4.60;;;;;;;26.41;61.40;101202.23;1650452;86;21897;-52
2021/06/23 03:36:09;;;;;;;6.28;4.70;;;;;;;26.44;61.58;101200.67;1587087;89;21086;-51
2021/06/23 03:38:37;;;;;;;30.75;26.55;;;;;;;26.48;61.63;101210.13;1597431;88;21115;-52
2021/06/23 03:41:05;;;;;;;28.98;25.75;;;;;;;26.50;61.86;101211.67;1592146;89;21529;-52
2021/06/23 03:43:32;;;;;;;10.80;9.65;;;;;;;26.58;62.52;101210.56;1597068;89;21191;-54
2021/06/23 03:45:59;;;;;;;10.45;5.87;;;;;;;26.75;62.95;101215.07;1584878;89;21070;-53
2021/06/23 03:48:26;;;;;;;6.85;5.03;;;;;;;27.04;63.13;101214.34;1599429;88;21109;-51
2021/06/23 03:51:02;;;;;;;7.97;4.42;;;;;;;27.52;61.70;101216.58;1600259;88;21069;-56
2021/06/23 03:53:29;;;;;;;8.70;3.90;;;;;;;28.82;58.31;101230.88;1597103;89;22255;-53
2021/06/23 03:55:57;;;;;;;5.33;3.60;;;;;;;28.82;58.31;101230.88;1601255;88;21592;-54
2021/06/23 03:58:26;;;;;;;4.80;4.17;;;;;;;29.53;56.16;101236.84;1591660;89;21082;-51
2021/06/23 04:00:52;;;;;;;8.15;3.83;;;;;;;30.18;54.20;101239.52;1583219;89;21120;-55
2021/06/23 04:03:36;;;;;;;8.80;5.55;;;;;;;30.78;52.58;101236.76;1587626;89;21034;-51
2021/06/23 04:06:05;;;;;;;6.12;5.05;;;;;;;31.33;50.71;101239.68;1576637;90;21069;-58
2021/06/23 04:08:32;;;;;;;7.90;4.03;;;;;;;31.60;49.23;101237.41;1575807;91;21058;-55
2021/06/23 04:10:58;;;;;;;5.05;3.67;;;;;;;31.68;48.41;101235.27;1572358;91;21157;-58
2021/06/23 04:13:25;;;;;;;6.70;3.65;;;;;;;31.67;48.30;101237.13;1591663;89;21102;-57
2021/06/23 04:15:53;;;;;;;4.12;3.10;;;;;;;31.67;48.18;101237.13;1664298;85;21747;-54
2021/06/23 04:18:21;;;;;;;5.42;3.33;;;;;;;31.71;48.00;101241.20;1656975;85;21104;-52
2021/06/23 04:20:48;;;;;;;5.55;3.20;;;;;;;31.70;47.82;101241.33;1664506;85;21090;-52
2021/06/23 04:23:17;;;;;;;7.22;3.60;;;;;;;31.56;47.84;101247.28;1668966;85;21031;-53
2021/06/23 04:25:45;;;;;;;6.65;3.60;;;;;;;31.33;48.05;101249.59;1662765;85;21074;-52
2021/06/23 04:28:13;;;;;;;4.55;4.15;;;;;;;31.10;48.63;101251.04;1658184;86;21533;-54
2021/06/23 04:30:41;;;;;;;4.95;3.25;;;;;;;30.87;49.04;101249.82;1670146;85;21074;-52
2021/06/23 04:33:08;;;;;;;5.40;3.70;;;;;;;30.63;49.49;101252.17;1663314;85;21608;-56
2021/06/23 04:35:42;;;;;;;10.98;4.30;;;;;;;30.42;50.12;101254.63;1660598;85;21049;-56
2021/06/23 04:38:09;;;;;;;21.45;5.78;;;;;;;30.25;50.78;101253.20;1662749;85;21066;-56
2021/06/23 04:40:36;;;;;;;11.18;4.90;;;;;;;30.11;51.20;101250.48;1739184;80;21601;-51
2021/06/23 04:43:03;;;;;;;11.40;5.40;;;;;;;29.99;51.47;101250.31;1744095;81;21053;-54
2021/06/23 04:45:30;;;;;;;12.07;5.75;;;;;;;29.88;51.81;101246.48;1732702;81;21144;-52
2021/06/23 04:48:01;;;;;;;;;;;;;;;29.78;52.14;101244.29;1743692;81;21014;-56
2021/06/23 04:50:30;;;;;;;15.25;5.40;;;;;;;29.70;52.46;101244.98;1716610;81;20115;-55
2021/06/23 04:52:58;;;;;;;12.00;4.80;;;;;;;29.62;52.73;101247.55;1743297;81;21097;-54
2021/06/23 04:55:25;;;;;;;7.92;4.70;;;;;;;29.57;52.85;101251.66;1754246;80;21532;-52
2021/06/23 04:57:54;;;;;;;11.12;4.25;;;;;;;29.53;53.07;101250.25;1738658;80;21022;-53
2021/06/23 05:00:22;;;;;;;6.22;3.77;;;;;;;29.49;53.14;101250.19;1746108;81;21003;-56
2021/06/23 05:02:49;;;;;;;7.00;3.77;;;;;;;29.48;53.11;101252.50;1736632;81;21120;-52
2021/06/23 05:05:16;;;;;;;5.83;3.77;;;;;;;29.48;53.20;101252.50;1737934;81;21539;-55
2021/06/23 05:07:43;;;;;;;6.28;4.35;;;;;;;29.48;53.49;101250.67;1722743;82;21027;-54
2021/06/23 05:10:10;;;;;;;17.05;10.43;;;;;;;29.54;53.35;101250.59;1713483;82;21038;-51
2021/06/23 05:12:37;;;;;;;29.48;14.03;;;;;;;29.60;53.30;101245.98;1735609;82;21503;-54
2021/06/23 05:15:06;;;;;;;13.43;6.00;;;;;;;29.70;53.06;101250.84;1714128;82;21050;-52
2021/06/23 05:17:33;;;;;;;8.80;5.03;;;;;;;29.83;52.78;101255.45;1712622;83;21050;-54
2021/06/23 05:20:00;;;;;;;9.40;4.62;;;;;;;29.94;52.70;101260.66;1751507;80;21567;-52
2021/06/23 05:22:28;;;;;;;13.95;6.87;;;;;;;30.04;52.34;101261.47;1734224;81;20999;-54
2021/06/23 05:24:55;;;;;;;12.23;4.90;;;;;;;30.16;52.25;101262.12;1744701;81;21467;-53
2021/06/23 05:27:22;;;;;;;8.33;5.40;;;;;;;30.25;51.62;101264.76;1695723;80;21010;-55
2021/06/23 05:29:49;;;;;;;7.33;4.33;;;;;;;30.35;51.49;101270.14;1751659;80;21038;-54
2021/06/23 05:32:16;;;;;;;6.60;3.60;;;;;;;30.42;50.89;101261.34;1737411;80;21073;-52
2021/06/23 05:34:44;;;;;;;12.35;3.52;;;;;;;30.50;50.53;101266.81;1749526;80;21097;-52
2021/06/23 05:37:11;;;;;;;9.08;3.27;;;;;;;30.56;50.38;101265.39;1745806;81;21063;-53
2021/06/23 05:39:37;;;;;;;7.60;3.30;;;;;;;30.66;50.04;101276.06;1742358;81;21014;-54
2021/06/23 05:42:06;;;;;;;14.65;3.85;;;;;;;30.73;49.89;101279.86;1743808;81;21043;-51
2021/06/23 05:44:33;;;;;;;7.33;3.30;;;;;;;30.82;49.97;101276.25;1750800;80;20994;-53
2021/06/23 05:47:00;;;;;;;9.33;3.60;;;;;;;30.90;49.61;101273.69;1734106;80;21035;-51
2021/06/23 05:49:28;;;;;;;8.35;3.80;;;;;;;31.00;49.32;101269.09;1745288;80;21027;-52
2021/06/23 05:51:55;;;;;;;5.17;3.27;;;;;;;31.11;48.90;101274.25;1742266;81;21073;-51
2021/06/23 05:54:23;;;;;;;6.05;3.22;;;;;;;31.21;48.53;101277.70;1740642;81;21039;-54
2021/06/23 05:56:49;;;;;;;5.53;3.20;;;;;;;31.30;48.32;101274.93;1752641;81;21023;-59
2021/06/23 05:59:16;;;;;;;6.03;3.60;;;;;;;31.41;47.90;101273.89;1745612;80;21070;-52
2021/06/23 06:01:43;;;;;;;7.55;3.25;;;;;;;31.50;47.56;101272.12;1750230;80;21051;-53
2021/06/23 06:04:10;;;;;;;5.92;3.83;;;;;;;31.58;47.37;101274.37;1750740;81;20999;-51
2021/06/23 06:06:38;;;;;;;9.23;3.42;;;;;;;31.63;47.19;101274.77;1745636;81;21010;-54
2021/06/23 06:09:06;;;;;;;11.78;3.58;;;;;;;31.69;47.06;101280.02;1743598;80;21043;-52
2021/06/23 06:11:33;;;;;;;5.15;3.00;;;;;;;31.75;47.00;101280.24;1750629;81;21010;-55
2021/06/23 06:14:00;;;;;;;5.22;3.60;;;;;;;31.79;47.25;101282.96;1741403;81;21300;-51
2021/06/23 06:16:27;;;;;;;7.20;3.65;;;;;;;31.89;46.77;101288.23;1755258;80;21043;-54
2021/06/23 06:18:55;;;;;;;6.70;3.98;;;;;;;31.96;46.29;101288.81;1730821;81;21479;-55
2021/06/23 06:21:23;;;;;;;5.65;4.20;;;;;;;32.27;45.67;101289.69;1755612;80;21022;-54
2021/06/23 06:23:50;;;;;;;8.43;4.42;;;;;;;32.48;45.38;101294.22;1735201;81;21126;-52
2021/06/23 06:26:16;;;;;;;5.90;4.15;;;;;;;32.60;45.57;101288.88;1757078;80;21062;-52
2021/06/23 06:28:43;;;;;;;5.25;3.98;;;;;;;32.64;45.62;101290.23;1744816;81;21522;-54
2021/06/23 06:31:10;;;;;;;9.08;4.70;;;;;;;32.59;45.61;101292.06;1747851;80;21039;-55
2021/06/23 06:33:37;;;;;;;8.43;4.20;;;;;;;32.49;45.83;101294.05;1746262;80;21006;-54
2021/06/23 06:36:05;;;;;;;9.23;4.30;;;;;;;32.38;45.94;101287.55;1745555;81;21547;-55
2021/06/23 06:38:32;;;;;;;9.40;4.50;;;;;;;32.25;46.16;101287.66;1753350;80;21531;-56
2021/06/23 06:40:59;;;;;;;4.37;3.87;;;;;;;32.09;46.42;101297.32;1756560;80;20975;-54
2021/06/23 06:43:26;;;;;;;3.95;3.65;;;;;;;31.95;46.81;101292.52;1750693;80;21042;-56
2021/06/23 06:46:02;;;;;;;4.33;4.00;;;;;;;31.83;47.20;101301.83;1743321;81;20999;-55
2021/06/23 06:48:29;;;;;;;4.67;4.37;;;;;;;31.71;47.48;101301.74;1762154;80;21450;-53
2021/06/23 06:50:56;;;;;;;8.15;7.45;;;;;;;31.61;47.73;101299.64;1745508;80;21585;-52
2021/06/23 06:53:24;;;;;;;8.40;7.58;;;;;;;31.50;47.96;101307.94;1755923;80;21011;-54
2021/06/23 06:55:52;;;;;;;8.18;6.53;;;;;;;31.42;48.22;101307.02;1739507;81;21046;-56
2021/06/23 06:58:19;;;;;;;5.53;4.40;;;;;;;31.33;48.53;101300.19;1752505;80;21451;-56
2021/06/23 07:00:45;;;;;;;11.30;4.25;;;;;;;31.28;48.71;101297.63;1752132;80;21010;-57
2021/06/23 07:03:12;;;;;;;3.87;3.58;;;;;;;31.24;48.84;101300.27;1749695;80;21026;-53
2021/06/23 07:05:39;;;;;;;3.87;3.42;;;;;;;31.22;49.05;101300.92;1742011;81;21527;-54
2021/06/23 07:08:06;;;;;;;4.83;4.42;;;;;;;31.27;49.10;101302.15;1720682;82;21513;-55
2021/06/23 07:10:33;;;;;;;7.75;4.00;;;;;;;31.35;48.89;101306.75;1692374;83;21098;-55
2021/06/23 07:12:59;;;;;;;6.70;4.50;;;;;;;31.41;48.65;101303.47;1730641;80;21047;-53
2021/06/23 07:15:28;;;;;;;4.25;3.90;;;;;;;31.44;48.38;101304.53;1733412;81;21522;-53
2021/06/23 07:17:57;;;;;;;4.85;4.03;;;;;;;31.48;48.07;101301.02;1732297;80;21005;-52
2021/06/23 07:20:24;;;;;;;6.35;4.55;;;;;;;31.54;47.92;101293.18;1724999;80;21510;-56
2021/06/23 07:22:51;;;;;;;4.85;3.85;;;;;;;31.64;47.93;101293.93;1750114;80;20975;-55
2021/06/23 07:25:18;;;;;;;3.80;3.50;;;;;;;31.74;47.84;101297.38;1747267;80;21043;-52
2021/06/23 07:27:45;;;;;;;4.85;3.60;;;;;;;31.84;47.63;101298.13;1760208;80;21483;-52
2021/06/23 07:30:12;;;;;;;4.70;4.30;;;;;;;31.87;47.51;101300.52;1749344;80;21018;-52
2021/06/23 07:37:57;;;;;;;5.70;3.80;;;;;;;31.82;47.48;101302.81;1668370;83;21599;-54
2021/06/23 07:40:42;;;;;;;5.67;3.65;;;;;;;31.80;47.53;101310.20;1696642;83;21046;-51
2021/06/23 07:42:53;;;;;;;3.77;3.40;;;;;;;31.76;47.55;101308.83;1684339;83;21066;-54
2021/06/23 07:45:21;;;;;;;4.20;3.80;;;;;;;31.72;47.72;101308.80;1674198;83;21538;-53
2021/06/23 07:47:47;;;;;;;4.42;3.30;;;;;;;31.70;47.86;101309.45;1681368;83;21533;-55
2021/06/23 07:50:14;;;;;;;4.05;3.47;;;;;;;31.68;47.87;101306.07;1681508;83;21069;-54
2021/06/23 07:52:54;;;;;;;2.60;2.40;;;;;;;31.63;48.00;101308.41;1694333;83;21055;-54
2021/06/23 08:09:09;;;;;;;3.17;2.85;;;;;;;31.33;48.73;101330.26;1683115;83;21044;-54
2021/06/23 08:11:34;;;;;;;3.22;3.00;;;;;;;31.26;48.89;101331.36;1693709;82;21188;-55
2021/06/23 08:13:58;;;;;;;3.67;2.72;;;;;;;31.25;49.03;101334.22;1741851;81;20998;-54
2021/06/23 08:16:25;;;;;;;4.30;3.87;;;;;;;31.23;49.08;101340.24;1755160;80;21645;-54
2021/06/23 08:18:53;;;;;;;2.75;2.47;;;;;;;31.22;49.30;101335.88;1727922;81;21040;-54
2021/06/23 08:21:20;;;;;;;2.92;2.72;;;;;;;31.20;49.34;101340.56;1732382;81;21478;-54
2021/06/23 08:23:46;;;;;;;3.20;2.58;;;;;;;31.18;49.43;101337.18;1744184;81;21019;-55
2021/06/23 08:26:13;;;;;;;3.47;3.17;;;;;;;31.17;49.56;101334.13;1747115;80;21011;-54
2021/06/23 08:28:40;;;;;;;5.70;4.60;;;;;;;31.14;49.62;101334.45;1761380;80;21050;-52
2021/06/23 08:31:07;;;;;;;8.88;5.30;;;;;;;31.12;49.67;101348.52;1751699;80;21050;-53
2021/06/23 08:33:33;;;;;;;4.72;3.98;;;;;;;31.10;49.75;101349.16;1763817;80;21042;-56
2021/06/23 08:36:00;;;;;;;3.98;3.60;;;;;;;31.09;49.81;101354.20;1750002;81;21066;-52
2021/06/23 08:38:27;;;;;;;3.47;3.27;;;;;;;31.07;49.78;101352.17;1750500;80;21585;-57
2021/06/23 08:40:54;;;;;;;4.70;4.20;;;;;;;31.04;49.87;101353.80;1751291;80;21006;-54
2021/06/23 08:43:21;;;;;;;4.83;4.47;;;;;;;31.01;49.99;101354.12;1762687;80;21011;-53
2021/06/23 08:45:47;;;;;;;7.90;7.20;;;;;;;30.97;50.14;101354.07;1743749;80;20986;-54
2021/06/23 08:48:14;;;;;;;16.52;14.98;;;;;;;30.93;50.31;101351.34;1748032;80;21026;-53
2021/06/23 08:50:42;;;;;;;10.40;7.47;;;;;;;30.91;50.46;101357.36;1753726;80;21602;-54
2021/06/23 08:53:09;;;;;;;8.00;3.60;;;;;;;30.88;50.47;101358.50;1764711;80;21019;-60
2021/06/23 08:55:37;;;;;;;3.65;3.17;;;;;;;30.89;50.42;101353.98;1749642;80;21013;-52
2021/06/23 08:58:04;;;;;;;3.65;3.35;;;;;;;30.89;50.51;101355.32;1742847;80;21050;-53
2021/06/23 09:00:31;;;;;;;18.60;16.65;;;;;;;30.88;50.59;101357.64;1747170;80;21062;-54
2021/06/23 09:03:08;;;;;;;8.88;8.08;;;;;;;30.85;50.64;101348.03;1734068;80;21101;-54
2021/06/23 09:05:55;;;;;;;5.40;4.90;;;;;;;30.84;50.70;101354.88;1739827;81;21026;-53
2021/06/23 09:08:36;;;;;;;4.30;3.75;;;;;;;30.83;50.83;101354.02;1742067;80;21588;-56
2021/06/23 09:11:19;;;;;;;4.30;4.00;;;;;;;30.83;50.87;101349.17;1757568;80;21030;-53
2021/06/23 09:13:46;;;;;;;6.10;5.20;;;;;;;30.82;50.84;101348.80;1737320;81;21531;-52
2021/06/23 09:16:12;;;;;;;10.40;9.43;;;;;;;30.80;50.83;101354.34;1738743;80;20995;-54
2021/06/23 09:18:42;;;;;;;5.90;5.25;;;;;;;30.78;50.85;101355.47;1746638;81;21113;-52
2021/06/23 09:21:15;;;;;;;6.42;4.67;;;;;;;30.77;50.82;101349.77;1736597;81;21074;-54
2021/06/23 09:23:52;;;;;;;6.25;4.83;;;;;;;30.75;51.06;101353.92;1760113;80;21076;-53
2021/06/23 09:26:26;;;;;;;5.72;4.58;;;;;;;30.74;51.10;101348.70;1737954;81;21062;-56
2021/06/23 09:29:11;;;;;;;7.85;4.70;;;;;;;30.73;51.22;101348.38;1746987;80;21067;-54
2021/06/23 09:32:02;;;;;;;6.78;4.72;;;;;;;30.71;51.42;101351.70;1743136;81;21526;-53
2021/06/23 09:34:36;;;;;;;6.85;5.72;;;;;;;30.71;51.48;101349.84;1682911;83;21090;-53
2021/06/23 09:37:31;;;;;;;8.48;5.37;;;;;;;30.74;51.43;101356.77;1697313;83;21039;-54
2021/06/23 09:40:20;;;;;;;5.97;5.17;;;;;;;30.77;51.44;101352.45;1695547;83;21077;-53
2021/06/23 09:42:56;;;;;;;5.83;5.20;;;;;;;30.79;51.49;101353.97;1693143;83;21012;-54
2021/06/23 09:45:23;;;;;;;5.75;5.25;;;;;;;30.82;51.43;101356.86;1709247;83;21081;-55
2021/06/23 09:48:00;;;;;;;5.33;4.92;;;;;;;30.81;51.38;101353.33;1699092;83;21030;-55
2021/06/23 09:50:29;;;;;;;9.33;8.28;;;;;;;30.82;51.30;101355.03;1677112;84;21068;-56
2021/06/23 09:53:03;;;;;;;9.25;8.23;;;;;;;30.82;51.27;101354.18;1686109;83;21063;-52
2021/06/23 09:55:39;;;;;;;6.20;5.42;;;;;;;30.82;51.25;101356.86;1619776;88;21130;-52
2021/06/23 09:58:13;;;;;;;6.22;5.50;;;;;;;30.83;51.28;101358.58;1586496;89;21644;-52
2021/06/23 10:04:08;;;;;;;8.90;6.58;;;;;;;30.86;51.20;101355.60;1596741;89;21076;-55
2021/06/23 10:06:37;;;;;;;6.80;6.25;;;;;;;30.87;51.40;101357.31;1576012;89;21602;-56
2021/06/23 10:12:00;;;;;;;7.12;6.50;;;;;;;30.88;51.21;101351.78;1504668;93;21183;-55
2021/06/23 10:14:29;;;;;;;11.48;7.03;;;;;;;30.91;51.29;101346.61;1536396;92;21050;-56
2021/06/23 10:19:28;;;;;;;8.30;7.53;;;;;;;30.96;51.32;101353.70;1501285;94;21653;-56
2021/06/23 10:21:56;;;;;;;7.50;6.80;;;;;;;30.97;51.29;101350.89;1497896;94;21109;-56
2021/06/23 10:24:24;;;;;;;8.63;7.15;;;;;;;31.01;51.29;101350.09;1503612;95;21126;-55
2021/06/23 10:26:52;;;;;;;7.45;6.80;;;;;;;31.01;51.34;101346.05;1501120;95;21164;-54
2021/06/23 10:29:28;;;;;;;8.50;7.22;;;;;;;31.01;51.38;101348.73;1499781;95;21165;-55
2021/06/23 10:31:54;;;;;;;8.40;7.62;;;;;;;31.02;51.17;101347.73;1493590;95;21549;-56
2021/06/23 10:34:22;;;;;;;8.03;7.37;;;;;;;31.02;51.12;101345.04;1475071;95;21160;-54
2021/06/23 10:36:50;;;;;;;9.48;8.68;;;;;;;31.02;51.21;101345.89;1503834;95;21124;-55
2021/06/23 10:39:19;;;;;;;9.38;7.62;;;;;;;31.05;51.25;101342.06;1505733;95;21595;-54
2021/06/23 10:41:51;;;;;;;7.87;6.83;;;;;;;31.06;51.16;101346.43;1506141;95;21069;-55
2021/06/23 10:44:24;;;;;;;9.88;7.70;;;;;;;31.05;51.15;101346.95;1506345;95;21085;-57
2021/06/23 10:46:56;;;;;;;10.30;9.30;;;;;;;31.06;51.28;101344.59;1424435;99;21479;-53
2021/06/23 10:49:41;;;;;;;18.48;16.57;;;;;;;31.10;51.29;101351.84;1424892;99;21125;-57
2021/06/23 10:52:26;;;;;;;8.73;7.45;;;;;;;31.13;51.09;101351.56;1392883;102;21636;-52
2021/06/23 10:55:01;;;;;;;8.18;7.45;;;;;;;31.18;50.99;101343.91;1374623;104;21187;-53
2021/06/23 10:57:36;;;;;;;7.30;6.60;;;;;;;31.21;50.85;101342.23;1394680;102;21137;-52
2021/06/23 11:00:12;;;;;;;8.63;6.28;;;;;;;31.20;50.89;101340.56;1399132;100;21251;-53
2021/06/23 11:02:42;;;;;;;7.72;6.25;;;;;;;31.22;50.93;101343.95;1359038;105;21243;-53
2021/06/23 11:05:22;;;;;;;6.85;5.42;;;;;;;31.22;50.95;101338.57;1357365;106;21190;-53
2021/06/23 11:07:55;;;;;;;9.85;5.70;;;;;;;31.24;50.90;101345.46;1359494;104;21155;-60
2021/06/23 11:10:30;;;;;;;5.80;4.83;;;;;;;31.25;50.85;101342.28;1352669;105;22009;-53
2021/06/23 11:13:08;;;;;;;5.80;5.17;;;;;;;31.25;50.84;101346.31;1348830;105;21129;-54
2021/06/23 11:15:38;;;;;;;10.13;5.45;;;;;;;31.25;50.77;101342.28;1374048;104;21148;-55
2021/06/23 11:18:35;;;;;;;7.33;4.92;;;;;;;31.26;50.71;101345.33;1381763;102;21100;-52
2021/06/23 11:21:19;;;;;;;8.78;6.25;;;;;;;31.26;50.66;101337.27;1381674;103;21625;-54
2021/06/23 11:23:59;;;;;;;9.13;6.10;;;;;;;31.26;50.66;101343.46;1443982;98;21222;-52
2021/06/23 11:26:33;;;;;;;8.57;6.00;;;;;;;31.27;50.64;101336.25;1444913;98;21096;-54
2021/06/23 11:29:14;;;;;;;8.15;5.45;;;;;;;31.29;50.57;101339.63;1468259;94;21589;-53
2021/06/23 11:31:54;;;;;;;6.53;5.45;;;;;;;31.30;50.62;101333.27;1499826;95;21519;-54
2021/06/23 11:34:39;;;;;;;8.70;5.53;;;;;;;31.30;50.54;101332.75;1499425;94;21081;-55
2021/06/23 11:37:09;;;;;;;7.42;5.08;;;;;;;31.34;50.62;101337.34;1456914;96;21250;-54
2021/06/23 11:39:36;;;;;;;9.00;6.28;;;;;;;31.34;50.48;101331.97;1444773;97;21111;-58
2021/06/23 11:42:05;;;;;;;16.48;14.78;;;;;;;31.34;50.55;101330.62;1444982;96;21647;-51
2021/06/23 11:44:34;;;;;;;31.62;25.90;;;;;;;31.36;50.65;101327.28;1526824;90;21117;-54
2021/06/23 11:47:02;;;;;;;14.53;9.83;;;;;;;31.37;50.69;101328.95;1535188;90;21099;-52
2021/06/23 11:49:33;;;;;;;7.37;6.58;;;;;;;31.41;50.71;101334.41;1540499;90;21076;-52
2021/06/23 11:52:02;;;;;;;8.15;5.92;;;;;;;31.41;50.63;101334.93;1550792;89;22016;-52
2021/06/23 11:54:29;;;;;;;8.98;5.87;;;;;;;31.38;50.74;101332.00;1543702;90;21788;-52
2021/06/23 11:56:56;;;;;;;7.97;5.12;;;;;;;31.38;50.61;101327.97;1544978;90;21091;-52
2021/06/23 11:59:22;;;;;;;11.63;5.25;;;;;;;31.42;50.33;101330.73;1590580;86;21043;-54
2021/06/23 12:01:49;;;;;;;7.53;4.72;;;;;;;31.44;50.30;101335.45;1671173;84;21152;-52
2021/06/23 12:04:16;;;;;;;26.90;19.02;;;;;;;31.46;50.15;101335.30;1676023;85;21635;-51
2021/06/23 12:06:43;;;;;;;11.05;8.55;;;;;;;31.47;50.07;101331.09;1660633;84;21068;-54